sensor_id;sensor_type;location;lat;lon;timestamp;pressure;altitude;pressure_sealevel;temperature;humidity
68656;BME280;55638;51.122;13.606;2022-12-29T00:01:23;99517.44;;;7.16;53.12
68656;BME280;55638;51.122;13.606;2022-12-29T00:02:54;99514.50;;;7.19;53.10
68656;BME280;55638;51.122;13.606;2022-12-29T00:04:26;99515.22;;;7.21;52.81
68656;BME280;55638;51.122;13.606;2022-12-29T00:05:58;99521.19;;;7.24;52.95
68656;BME280;55638;51.122;13.606;2022-12-29T00:07:30;99513.84;;;7.26;52.98
68656;BME280;55638;51.122;13.606;2022-12-29T00:09:02;99515.44;;;7.29;52.81
68656;BME280;55638;51.122;13.606;2022-12-29T00:10:34;99524.78;;;7.34;52.90
68656;BME280;55638;51.122;13.606;2022-12-29T00:12:05;99504.88;;;7.37;52.94
68656;BME280;55638;51.122;13.606;2022-12-29T00:13:37;99505.34;;;7.42;53.19
68656;BME280;55638;51.122;13.606;2022-12-29T00:15:28;99499.13;;;7.42;52.51
68656;BME280;55638;51.122;13.606;2022-12-29T00:17:09;99481.47;;;7.49;52.81
68656;BME280;55638;51.122;13.606;2022-12-29T00:18:40;99498.16;;;7.52;52.93
68656;BME280;55638;51.122;13.606;2022-12-29T00:20:12;99476.41;;;7.55;52.28
68656;BME280;55638;51.122;13.606;2022-12-29T00:22:02;99468.78;;;7.60;52.88
68656;BME280;55638;51.122;13.606;2022-12-29T00:23:52;99480.72;;;7.68;52.97
68656;BME280;55638;51.122;13.606;2022-12-29T00:25:43;99473.34;;;7.70;52.61
68656;BME280;55638;51.122;13.606;2022-12-29T00:27:33;99470.28;;;7.74;52.83
68656;BME280;55638;51.122;13.606;2022-12-29T00:29:23;99477.91;;;7.79;52.92
68656;BME280;55638;51.122;13.606;2022-12-29T00:31:13;99474.69;;;7.85;52.66
68656;BME280;55638;51.122;13.606;2022-12-29T00:33:15;99487.13;;;7.86;52.09
68656;BME280;55638;51.122;13.606;2022-12-29T00:35:09;99485.75;;;7.92;52.43
68656;BME280;55638;51.122;13.606;2022-12-29T00:36:43;99475.44;;;7.97;52.88
68656;BME280;55638;51.122;13.606;2022-12-29T00:38:15;99480.53;;;8.00;52.79
68656;BME280;55638;51.122;13.606;2022-12-29T00:40:06;99482.25;;;8.01;52.81
68656;BME280;55638;51.122;13.606;2022-12-29T00:42:02;99466.69;;;8.04;52.32
68656;BME280;55638;51.122;13.606;2022-12-29T00:43:53;99480.84;;;8.06;52.79
68656;BME280;55638;51.122;13.606;2022-12-29T00:45:40;99480.56;;;8.10;52.43
68656;BME280;55638;51.122;13.606;2022-12-29T00:47:12;99479.72;;;8.09;52.65
68656;BME280;55638;51.122;13.606;2022-12-29T00:48:44;99469.69;;;8.11;52.62
68656;BME280;55638;51.122;13.606;2022-12-29T00:50:35;99466.84;;;8.13;52.67
68656;BME280;55638;51.122;13.606;2022-12-29T00:52:09;99465.03;;;8.13;52.37
68656;BME280;55638;51.122;13.606;2022-12-29T00:53:41;99467.56;;;8.15;52.69
68656;BME280;55638;51.122;13.606;2022-12-29T00:55:13;99471.94;;;8.16;52.94
68656;BME280;55638;51.122;13.606;2022-12-29T00:56:47;99463.88;;;8.16;52.77
68656;BME280;55638;51.122;13.606;2022-12-29T00:58:20;99455.69;;;8.17;52.78
68656;BME280;55638;51.122;13.606;2022-12-29T00:59:52;99461.06;;;8.17;52.99
68656;BME280;55638;51.122;13.606;2022-12-29T01:01:24;99462.91;;;8.17;52.88
68656;BME280;55638;51.122;13.606;2022-12-29T01:02:56;99465.59;;;8.17;52.81
68656;BME280;55638;51.122;13.606;2022-12-29T01:04:28;99468.41;;;8.15;52.99
68656;BME280;55638;51.122;13.606;2022-12-29T01:06:01;99464.72;;;8.16;52.96
68656;BME280;55638;51.122;13.606;2022-12-29T01:07:33;99457.94;;;8.12;53.01
68656;BME280;55638;51.122;13.606;2022-12-29T01:09:07;99471.25;;;8.14;53.13
68656;BME280;55638;51.122;13.606;2022-12-29T01:11:02;99465.03;;;8.13;53.11
68656;BME280;55638;51.122;13.606;2022-12-29T01:12:34;99464.03;;;8.14;53.27
68656;BME280;55638;51.122;13.606;2022-12-29T01:14:14;99462.47;;;8.12;53.32
68656;BME280;55638;51.122;13.606;2022-12-29T01:15:52;99468.84;;;8.11;53.32
68656;BME280;55638;51.122;13.606;2022-12-29T01:17:25;99465.31;;;8.10;53.47
68656;BME280;55638;51.122;13.606;2022-12-29T01:18:56;99468.97;;;8.09;53.51
68656;BME280;55638;51.122;13.606;2022-12-29T01:20:28;99476.06;;;8.10;53.57
68656;BME280;55638;51.122;13.606;2022-12-29T01:22:01;99475.44;;;8.06;53.54
68656;BME280;55638;51.122;13.606;2022-12-29T01:23:33;99471.66;;;8.09;53.60
68656;BME280;55638;51.122;13.606;2022-12-29T01:25:05;99475.19;;;8.10;53.64
68656;BME280;55638;51.122;13.606;2022-12-29T01:26:37;99466.28;;;8.09;53.89
68656;BME280;55638;51.122;13.606;2022-12-29T01:28:09;99468.25;;;8.07;53.67
68656;BME280;55638;51.122;13.606;2022-12-29T01:29:42;99468.09;;;8.09;53.61
68656;BME280;55638;51.122;13.606;2022-12-29T01:31:14;99467.25;;;8.08;53.60
68656;BME280;55638;51.122;13.606;2022-12-29T01:32:46;99469.94;;;8.08;53.76
68656;BME280;55638;51.122;13.606;2022-12-29T01:34:18;99468.09;;;8.09;53.74
68656;BME280;55638;51.122;13.606;2022-12-29T01:35:50;99474.34;;;8.09;53.91
68656;BME280;55638;51.122;13.606;2022-12-29T01:37:22;99474.34;;;8.09;53.89
68656;BME280;55638;51.122;13.606;2022-12-29T01:38:54;99468.00;;;8.10;53.96
68656;BME280;55638;51.122;13.606;2022-12-29T01:40:25;99472.66;;;8.08;54.13
68656;BME280;55638;51.122;13.606;2022-12-29T01:41:57;99471.81;;;8.07;54.20
68656;BME280;55638;51.122;13.606;2022-12-29T01:43:47;99469.50;;;8.03;53.63
68656;BME280;55638;51.122;13.606;2022-12-29T01:45:19;99461.16;;;8.06;54.26
68656;BME280;55638;51.122;13.606;2022-12-29T01:46:51;99461.44;;;8.03;54.35
68656;BME280;55638;51.122;13.606;2022-12-29T01:48:23;99457.31;;;7.99;54.43
68656;BME280;55638;51.122;13.606;2022-12-29T01:49:57;99458.44;;;7.96;54.34
68656;BME280;55638;51.122;13.606;2022-12-29T01:51:39;99455.06;;;7.94;54.66
68656;BME280;55638;51.122;13.606;2022-12-29T01:53:17;99462.56;;;7.91;54.65
68656;BME280;55638;51.122;13.606;2022-12-29T01:54:52;99458.41;;;7.87;54.71
68656;BME280;55638;51.122;13.606;2022-12-29T01:56:26;99456.25;;;7.80;54.91
68656;BME280;55638;51.122;13.606;2022-12-29T01:58:01;99457.41;;;7.78;54.92
68656;BME280;55638;51.122;13.606;2022-12-29T01:59:38;99454.16;;;7.74;55.06
68656;BME280;55638;51.122;13.606;2022-12-29T02:01:11;99447.31;;;7.70;55.06
68656;BME280;55638;51.122;13.606;2022-12-29T02:02:50;99451.28;;;7.66;55.08
68656;BME280;55638;51.122;13.606;2022-12-29T02:04:24;99446.31;;;7.62;55.42
68656;BME280;55638;51.122;13.606;2022-12-29T02:06:11;99438.66;;;7.57;55.29
68656;BME280;55638;51.122;13.606;2022-12-29T02:07:46;99439.44;;;7.48;55.56
68656;BME280;55638;51.122;13.606;2022-12-29T02:09:19;99437.63;;;7.48;55.75
68656;BME280;55638;51.122;13.606;2022-12-29T02:10:56;99424.19;;;7.48;55.65
68656;BME280;55638;51.122;13.606;2022-12-29T02:12:28;99431.66;;;7.45;55.70
68656;BME280;55638;51.122;13.606;2022-12-29T02:14:00;99427.44;;;7.42;55.84
68656;BME280;55638;51.122;13.606;2022-12-29T02:15:51;99429.66;;;7.37;55.69
68656;BME280;55638;51.122;13.606;2022-12-29T02:19:36;99434.19;;;7.36;55.69
68656;BME280;55638;51.122;13.606;2022-12-29T02:21:35;99430.66;;;7.36;55.96
68656;BME280;55638;51.122;13.606;2022-12-29T02:25:29;99429.91;;;7.34;56.07
68656;BME280;55638;51.122;13.606;2022-12-29T02:29:11;99424.28;;;7.37;56.19
68656;BME280;55638;51.122;13.606;2022-12-29T02:31:02;99419.91;;;7.36;56.21
68656;BME280;55638;51.122;13.606;2022-12-29T02:32:39;99427.81;;;7.38;56.46
68656;BME280;55638;51.122;13.606;2022-12-29T02:39:34;99416.78;;;7.41;56.04
68656;BME280;55638;51.122;13.606;2022-12-29T02:41:19;99416.69;;;7.42;56.21
68656;BME280;55638;51.122;13.606;2022-12-29T02:43:04;99413.84;;;7.44;56.23
68656;BME280;55638;51.122;13.606;2022-12-29T02:45:00;99417.25;;;7.46;56.35
68656;BME280;55638;51.122;13.606;2022-12-29T02:46:37;99418.53;;;7.51;56.51
68656;BME280;55638;51.122;13.606;2022-12-29T02:48:28;99419.53;;;7.50;56.22
68656;BME280;55638;51.122;13.606;2022-12-29T02:50:08;99412.03;;;7.54;56.41
68656;BME280;55638;51.122;13.606;2022-12-29T02:52:03;99413.88;;;7.53;55.22
68656;BME280;55638;51.122;13.606;2022-12-29T02:53:36;99421.41;;;7.59;56.74
68656;BME280;55638;51.122;13.606;2022-12-29T02:55:27;99419.19;;;7.65;56.67
68656;BME280;55638;51.122;13.606;2022-12-29T02:56:59;99417.34;;;7.65;56.55
68656;BME280;55638;51.122;13.606;2022-12-29T02:58:31;99418.03;;;7.67;56.55
68656;BME280;55638;51.122;13.606;2022-12-29T03:00:07;99416.91;;;7.70;56.34
68656;BME280;55638;51.122;13.606;2022-12-29T03:02:12;99416.06;;;7.69;56.34
68656;BME280;55638;51.122;13.606;2022-12-29T03:04:12;99415.66;;;7.74;55.95
68656;BME280;55638;51.122;13.606;2022-12-29T03:06:15;99417.22;;;7.76;56.40
68656;BME280;55638;51.122;13.606;2022-12-29T03:08:08;99408.88;;;7.79;56.41
68656;BME280;55638;51.122;13.606;2022-12-29T03:09:54;99411.19;;;7.84;56.04
68656;BME280;55638;51.122;13.606;2022-12-29T03:11:42;99411.75;;;7.88;56.05
68656;BME280;55638;51.122;13.606;2022-12-29T03:13:39;99403.25;;;7.92;56.37
68656;BME280;55638;51.122;13.606;2022-12-29T03:15:36;99406.78;;;7.93;56.19
68656;BME280;55638;51.122;13.606;2022-12-29T03:17:37;99396.75;;;7.95;56.14
68656;BME280;55638;51.122;13.606;2022-12-29T03:19:16;99397.16;;;8.00;56.51
68656;BME280;55638;51.122;13.606;2022-12-29T03:21:02;99397.16;;;8.00;55.68
68656;BME280;55638;51.122;13.606;2022-12-29T03:22:39;99393.09;;;8.05;56.06
68656;BME280;55638;51.122;13.606;2022-12-29T03:24:18;99393.66;;;8.09;55.94
68656;BME280;55638;51.122;13.606;2022-12-29T03:25:55;99390.69;;;8.12;56.00
68656;BME280;55638;51.122;13.606;2022-12-29T03:27:30;99375.00;;;8.17;56.33
68656;BME280;55638;51.122;13.606;2022-12-29T03:29:05;99385.47;;;8.20;55.80
68656;BME280;55638;51.122;13.606;2022-12-29T03:30:40;99370.75;;;8.24;56.08
68656;BME280;55638;51.122;13.606;2022-12-29T03:32:15;99379.38;;;8.28;56.19
68656;BME280;55638;51.122;13.606;2022-12-29T03:33:48;99386.34;;;8.31;55.97
68656;BME280;55638;51.122;13.606;2022-12-29T03:35:25;99369.66;;;8.37;55.45
68656;BME280;55638;51.122;13.606;2022-12-29T03:37:06;99372.75;;;8.42;55.42
68656;BME280;55638;51.122;13.606;2022-12-29T03:38:45;99364.28;;;8.46;54.68
68656;BME280;55638;51.122;13.606;2022-12-29T03:40:20;99365.53;;;8.52;55.25
68656;BME280;55638;51.122;13.606;2022-12-29T03:42:01;99363.41;;;8.56;55.32
68656;BME280;55638;51.122;13.606;2022-12-29T03:43:34;99365.66;;;8.60;55.49
68656;BME280;55638;51.122;13.606;2022-12-29T03:45:07;99363.41;;;8.65;55.80
68656;BME280;55638;51.122;13.606;2022-12-29T03:46:39;99354.88;;;8.70;55.53
68656;BME280;55638;51.122;13.606;2022-12-29T03:48:11;99361.00;;;8.72;55.37
68656;BME280;55638;51.122;13.606;2022-12-29T03:49:45;99356.00;;;8.77;55.33
68656;BME280;55638;51.122;13.606;2022-12-29T03:51:17;99364.63;;;8.81;55.13
68656;BME280;55638;51.122;13.606;2022-12-29T03:52:49;99354.72;;;8.81;55.16
68656;BME280;55638;51.122;13.606;2022-12-29T03:54:21;99350.88;;;8.84;54.96
68656;BME280;55638;51.122;13.606;2022-12-29T03:55:53;99349.59;;;8.88;55.15
68656;BME280;55638;51.122;13.606;2022-12-29T03:57:26;99358.38;;;8.90;55.00
68656;BME280;55638;51.122;13.606;2022-12-29T03:59:03;99355.41;;;8.93;55.02
68656;BME280;55638;51.122;13.606;2022-12-29T04:00:42;99356.81;;;8.97;54.91
68656;BME280;55638;51.122;13.606;2022-12-29T04:02:14;99359.38;;;8.98;54.94
68656;BME280;55638;51.122;13.606;2022-12-29T04:03:46;99352.13;;;8.99;54.72
68656;BME280;55638;51.122;13.606;2022-12-29T04:05:18;99352.84;;;9.01;54.54
68656;BME280;55638;51.122;13.606;2022-12-29T04:06:50;99354.38;;;9.04;54.71
68656;BME280;55638;51.122;13.606;2022-12-29T04:08:22;99351.38;;;9.07;54.70
68656;BME280;55638;51.122;13.606;2022-12-29T04:09:53;99359.34;;;9.08;54.68
68656;BME280;55638;51.122;13.606;2022-12-29T04:11:28;99352.94;;;9.09;54.65
68656;BME280;55638;51.122;13.606;2022-12-29T04:13:04;99358.88;;;9.13;54.59
68656;BME280;55638;51.122;13.606;2022-12-29T04:14:36;99365.13;;;9.13;54.61
68656;BME280;55638;51.122;13.606;2022-12-29T04:16:08;99355.91;;;9.16;54.62
68656;BME280;55638;51.122;13.606;2022-12-29T04:17:40;99352.06;;;9.18;54.61
68656;BME280;55638;51.122;13.606;2022-12-29T04:19:12;99363.56;;;9.20;54.34
68656;BME280;55638;51.122;13.606;2022-12-29T04:20:45;99354.47;;;9.21;54.37
68656;BME280;55638;51.122;13.606;2022-12-29T04:22:35;99355.16;;;9.23;54.44
68656;BME280;55638;51.122;13.606;2022-12-29T04:24:07;99357.53;;;9.27;54.32
68656;BME280;55638;51.122;13.606;2022-12-29T04:25:46;99356.56;;;9.28;54.09
68656;BME280;55638;51.122;13.606;2022-12-29T04:27:21;99360.81;;;9.30;54.35
68656;BME280;55638;51.122;13.606;2022-12-29T04:29:16;99364.06;;;9.34;54.50
68656;BME280;55638;51.122;13.606;2022-12-29T04:31:07;99351.56;;;9.33;54.41
68656;BME280;55638;51.122;13.606;2022-12-29T04:32:41;99354.13;;;9.34;54.25
68656;BME280;55638;51.122;13.606;2022-12-29T04:34:13;99342.22;;;9.37;54.38
68656;BME280;55638;51.122;13.606;2022-12-29T04:35:45;99355.53;;;9.38;54.30
68656;BME280;55638;51.122;13.606;2022-12-29T04:37:18;99351.81;;;9.39;54.20
68656;BME280;55638;51.122;13.606;2022-12-29T04:38:49;99349.00;;;9.41;54.17
68656;BME280;55638;51.122;13.606;2022-12-29T04:40:21;99341.75;;;9.41;53.95
68656;BME280;55638;51.122;13.606;2022-12-29T04:41:54;99326.44;;;9.42;54.05
68656;BME280;55638;51.122;13.606;2022-12-29T04:43:26;99334.22;;;9.45;54.28
68656;BME280;55638;51.122;13.606;2022-12-29T04:45:11;99337.66;;;9.47;54.19
68656;BME280;55638;51.122;13.606;2022-12-29T04:47:07;99341.03;;;9.49;54.13
68656;BME280;55638;51.122;13.606;2022-12-29T04:48:49;99339.03;;;9.51;54.15
68656;BME280;55638;51.122;13.606;2022-12-29T04:50:43;99344.44;;;9.51;54.07
68656;BME280;55638;51.122;13.606;2022-12-29T04:52:23;99342.59;;;9.52;54.34
68656;BME280;55638;51.122;13.606;2022-12-29T04:53:55;99348.13;;;9.50;54.46
68656;BME280;55638;51.122;13.606;2022-12-29T04:55:29;99334.50;;;9.52;54.48
68656;BME280;55638;51.122;13.606;2022-12-29T04:57:01;99338.19;;;9.51;54.36
68656;BME280;55638;51.122;13.606;2022-12-29T04:58:33;99337.50;;;9.49;54.62
68656;BME280;55638;51.122;13.606;2022-12-29T05:00:05;99335.91;;;9.46;54.42
68656;BME280;55638;51.122;13.606;2022-12-29T05:01:39;99346.00;;;9.44;54.46
68656;BME280;55638;51.122;13.606;2022-12-29T05:03:11;99350.84;;;9.40;54.44
68656;BME280;55638;51.122;13.606;2022-12-29T05:04:45;99349.28;;;9.38;54.29
68656;BME280;55638;51.122;13.606;2022-12-29T05:06:18;99345.75;;;9.37;54.55
68656;BME280;55638;51.122;13.606;2022-12-29T05:07:50;99356.81;;;9.34;54.52
68656;BME280;55638;51.122;13.606;2022-12-29T05:09:22;99353.59;;;9.31;54.44
68656;BME280;55638;51.122;13.606;2022-12-29T05:10:55;99351.72;;;9.31;54.59
68656;BME280;55638;51.122;13.606;2022-12-29T05:12:34;99359.28;;;9.28;54.20
68656;BME280;55638;51.122;13.606;2022-12-29T05:14:06;99341.25;;;9.28;54.58
68656;BME280;55638;51.122;13.606;2022-12-29T05:15:40;99342.25;;;9.27;54.56
68656;BME280;55638;51.122;13.606;2022-12-29T05:17:12;99340.53;;;9.26;54.46
68656;BME280;55638;51.122;13.606;2022-12-29T05:18:44;99327.91;;;9.27;54.48
68656;BME280;55638;51.122;13.606;2022-12-29T05:20:16;99329.75;;;9.26;54.21
68656;BME280;55638;51.122;13.606;2022-12-29T05:21:48;99333.47;;;9.25;54.49
68656;BME280;55638;51.122;13.606;2022-12-29T05:23:20;99343.41;;;9.25;54.40
68656;BME280;55638;51.122;13.606;2022-12-29T05:24:59;99339.69;;;9.26;54.28
68656;BME280;55638;51.122;13.606;2022-12-29T05:26:31;99356.69;;;9.26;54.47
68656;BME280;55638;51.122;13.606;2022-12-29T05:28:09;99356.69;;;9.26;54.34
68656;BME280;55638;51.122;13.606;2022-12-29T05:29:46;99350.47;;;9.26;54.41
68656;BME280;55638;51.122;13.606;2022-12-29T05:31:18;99357.53;;;9.27;54.24
68656;BME280;55638;51.122;13.606;2022-12-29T05:32:51;99361.13;;;9.27;54.40
68656;BME280;55638;51.122;13.606;2022-12-29T05:34:23;99354.84;;;9.27;54.33
68656;BME280;55638;51.122;13.606;2022-12-29T05:35:55;99366.34;;;9.29;54.30
68656;BME280;55638;51.122;13.606;2022-12-29T05:37:27;99360.81;;;9.30;54.25
68656;BME280;55638;51.122;13.606;2022-12-29T05:38:59;99358.13;;;9.30;54.25
68656;BME280;55638;51.122;13.606;2022-12-29T05:40:32;99357.81;;;9.33;54.21
68656;BME280;55638;51.122;13.606;2022-12-29T05:42:08;99376.66;;;9.33;54.23
68656;BME280;55638;51.122;13.606;2022-12-29T05:43:51;99368.91;;;9.30;54.19
68656;BME280;55638;51.122;13.606;2022-12-29T05:45:36;99361.66;;;9.31;54.20
68656;BME280;55638;51.122;13.606;2022-12-29T05:47:27;99364.38;;;9.31;54.21
68656;BME280;55638;51.122;13.606;2022-12-29T05:49:15;99367.75;;;9.33;54.35
68656;BME280;55638;51.122;13.606;2022-12-29T05:50:56;99368.59;;;9.33;54.26
68656;BME280;55638;51.122;13.606;2022-12-29T05:52:36;99365.03;;;9.33;54.28
68656;BME280;55638;51.122;13.606;2022-12-29T05:54:08;99368.44;;;9.35;54.18
68656;BME280;55638;51.122;13.606;2022-12-29T05:55:42;99377.38;;;9.35;54.21
68656;BME280;55638;51.122;13.606;2022-12-29T05:57:19;99377.53;;;9.34;54.28
68656;BME280;55638;51.122;13.606;2022-12-29T05:59:00;99374.69;;;9.35;54.29
68656;BME280;55638;51.122;13.606;2022-12-29T06:00:32;99374.69;;;9.35;54.28
68656;BME280;55638;51.122;13.606;2022-12-29T06:02:03;99379.22;;;9.35;54.21
68656;BME280;55638;51.122;13.606;2022-12-29T06:03:36;99373.84;;;9.35;54.27
68656;BME280;55638;51.122;13.606;2022-12-29T06:05:15;99376.38;;;9.36;54.43
68656;BME280;55638;51.122;13.606;2022-12-29T06:06:47;99375.41;;;9.37;54.29
68656;BME280;55638;51.122;13.606;2022-12-29T06:08:27;99378.09;;;9.37;54.36
68656;BME280;55638;51.122;13.606;2022-12-29T06:09:58;99374.56;;;9.37;54.14
68656;BME280;55638;51.122;13.606;2022-12-29T06:11:31;99379.94;;;9.37;54.21
68656;BME280;55638;51.122;13.606;2022-12-29T06:13:04;99366.59;;;9.35;54.19
68656;BME280;55638;51.122;13.606;2022-12-29T06:14:40;99364.75;;;9.36;54.12
68656;BME280;55638;51.122;13.606;2022-12-29T06:16:12;99363.78;;;9.37;54.21
68656;BME280;55638;51.122;13.606;2022-12-29T06:17:44;99366.47;;;9.37;54.34
68656;BME280;55638;51.122;13.606;2022-12-29T06:19:15;99367.31;;;9.37;54.28
68656;BME280;55638;51.122;13.606;2022-12-29T06:20:48;99362.91;;;9.36;54.17
68656;BME280;55638;51.122;13.606;2022-12-29T06:22:22;99355.53;;;9.38;54.26
68656;BME280;55638;51.122;13.606;2022-12-29T06:23:53;99358.22;;;9.38;54.22
68656;BME280;55638;51.122;13.606;2022-12-29T06:25:25;99350.97;;;9.39;54.06
68656;BME280;55638;51.122;13.606;2022-12-29T06:26:57;99350.97;;;9.39;53.89
68656;BME280;55638;51.122;13.606;2022-12-29T06:28:29;99353.97;;;9.36;53.80
68656;BME280;55638;51.122;13.606;2022-12-29T06:30:01;99353.84;;;9.37;54.10
68656;BME280;55638;51.122;13.606;2022-12-29T06:31:34;99351.16;;;9.37;53.92
68656;BME280;55638;51.122;13.606;2022-12-29T06:33:06;99345.59;;;9.39;53.90
68656;BME280;55638;51.122;13.606;2022-12-29T06:34:39;99350.31;;;9.37;53.94
68656;BME280;55638;51.122;13.606;2022-12-29T06:36:11;99337.66;;;9.37;53.85
68656;BME280;55638;51.122;13.606;2022-12-29T06:37:44;99346.59;;;9.38;53.99
68656;BME280;55638;51.122;13.606;2022-12-29T06:39:16;99340.38;;;9.37;53.74
68656;BME280;55638;51.122;13.606;2022-12-29T06:40:54;99349.28;;;9.38;53.75
68656;BME280;55638;51.122;13.606;2022-12-29T06:42:46;99354.69;;;9.38;53.68
68656;BME280;55638;51.122;13.606;2022-12-29T06:44:40;99353.84;;;9.37;53.73
68656;BME280;55638;51.122;13.606;2022-12-29T06:46:13;99354.97;;;9.35;53.54
68656;BME280;55638;51.122;13.606;2022-12-29T06:47:45;99354.13;;;9.34;53.55
68656;BME280;55638;51.122;13.606;2022-12-29T06:49:17;99352.41;;;9.33;53.57
68656;BME280;55638;51.122;13.606;2022-12-29T06:50:49;99356.13;;;9.32;53.52
68656;BME280;55638;51.122;13.606;2022-12-29T06:52:21;99355.56;;;9.29;53.51
68656;BME280;55638;51.122;13.606;2022-12-29T06:53:55;99361.97;;;9.28;53.54
68656;BME280;55638;51.122;13.606;2022-12-29T06:55:27;99352.47;;;9.23;53.40
68656;BME280;55638;51.122;13.606;2022-12-29T06:56:59;99361.53;;;9.22;53.49
68656;BME280;55638;51.122;13.606;2022-12-29T06:58:31;99352.06;;;9.18;53.47
68656;BME280;55638;51.122;13.606;2022-12-29T07:00:04;99363.13;;;9.15;53.45
68656;BME280;55638;51.122;13.606;2022-12-29T07:01:36;99376.72;;;9.14;53.70
68656;BME280;55638;51.122;13.606;2022-12-29T07:03:08;99363.72;;;9.09;53.62
68656;BME280;55638;51.122;13.606;2022-12-29T07:04:40;99370.09;;;9.08;53.46
68656;BME280;55638;51.122;13.606;2022-12-29T07:06:12;99369.41;;;9.06;53.60
68656;BME280;55638;51.122;13.606;2022-12-29T07:07:43;99375.22;;;9.02;53.63
68656;BME280;55638;51.122;13.606;2022-12-29T07:09:15;99381.75;;;8.99;53.53
68656;BME280;55638;51.122;13.606;2022-12-29T07:10:47;99379.50;;;8.94;53.63
68656;BME280;55638;51.122;13.606;2022-12-29T07:12:19;99380.66;;;8.92;53.79
68656;BME280;55638;51.122;13.606;2022-12-29T07:13:51;99389.00;;;8.89;53.91
68656;BME280;55638;51.122;13.606;2022-12-29T07:15:23;99389.28;;;8.86;53.81
68656;BME280;55638;51.122;13.606;2022-12-29T07:16:54;99386.91;;;8.83;53.85
68656;BME280;55638;51.122;13.606;2022-12-29T07:18:26;99390.72;;;8.80;54.01
68656;BME280;55638;51.122;13.606;2022-12-29T07:19:58;99376.41;;;8.80;54.16
68656;BME280;55638;51.122;13.606;2022-12-29T07:21:30;99385.63;;;8.77;54.27
68656;BME280;55638;51.122;13.606;2022-12-29T07:23:02;99385.78;;;8.75;54.30
68656;BME280;55638;51.122;13.606;2022-12-29T07:24:34;99381.38;;;8.74;54.28
68656;BME280;55638;51.122;13.606;2022-12-29T07:26:07;99384.06;;;8.74;54.22
68656;BME280;55638;51.122;13.606;2022-12-29T07:27:39;99388.59;;;8.74;54.48
68656;BME280;55638;51.122;13.606;2022-12-29T07:29:11;99393.13;;;8.73;54.51
68656;BME280;55638;51.122;13.606;2022-12-29T07:30:45;99380.53;;;8.74;54.19
68656;BME280;55638;51.122;13.606;2022-12-29T07:32:17;99375.00;;;8.75;54.57
68656;BME280;55638;51.122;13.606;2022-12-29T07:33:49;99373.28;;;8.74;54.70
68656;BME280;55638;51.122;13.606;2022-12-29T07:35:21;99364.91;;;8.78;54.68
68656;BME280;55638;51.122;13.606;2022-12-29T07:36:53;99368.34;;;8.80;54.65
68656;BME280;55638;51.122;13.606;2022-12-29T07:38:24;99371.88;;;8.80;54.62
68656;BME280;55638;51.122;13.606;2022-12-29T07:39:56;99371.03;;;8.80;54.51
68656;BME280;55638;51.122;13.606;2022-12-29T07:41:28;99368.34;;;8.80;54.53
68656;BME280;55638;51.122;13.606;2022-12-29T07:43:00;99375.41;;;8.81;54.46
68656;BME280;55638;51.122;13.606;2022-12-29T07:44:41;99371.88;;;8.80;54.47
68656;BME280;55638;51.122;13.606;2022-12-29T07:46:39;99373.00;;;8.78;54.49
68656;BME280;55638;51.122;13.606;2022-12-29T07:48:27;99370.31;;;8.78;54.70
68656;BME280;55638;51.122;13.606;2022-12-29T07:49:58;99379.38;;;8.76;54.73
68656;BME280;55638;51.122;13.606;2022-12-29T07:51:30;99378.38;;;8.78;54.90
68656;BME280;55638;51.122;13.606;2022-12-29T07:53:03;99371.31;;;8.76;54.91
68656;BME280;55638;51.122;13.606;2022-12-29T07:54:35;99375.69;;;8.78;55.05
68656;BME280;55638;51.122;13.606;2022-12-29T07:56:07;99373.84;;;8.78;55.09
68656;BME280;55638;51.122;13.606;2022-12-29T07:57:39;99381.78;;;8.80;55.04
68656;BME280;55638;51.122;13.606;2022-12-29T07:59:11;99374.44;;;8.82;55.09
68656;BME280;55638;51.122;13.606;2022-12-29T08:00:43;99380.50;;;8.84;55.06
68656;BME280;55638;51.122;13.606;2022-12-29T08:02:15;99383.06;;;8.85;55.10
68656;BME280;55638;51.122;13.606;2022-12-29T08:03:47;99370.44;;;8.86;55.13
68656;BME280;55638;51.122;13.606;2022-12-29T08:05:25;99373.97;;;8.86;54.88
68656;BME280;55638;51.122;13.606;2022-12-29T08:06:57;99376.53;;;8.88;54.94
68656;BME280;55638;51.122;13.606;2022-12-29T08:08:29;99395.38;;;8.88;54.83
68656;BME280;55638;51.122;13.606;2022-12-29T08:10:01;99390.69;;;8.90;54.90
68656;BME280;55638;51.122;13.606;2022-12-29T08:11:33;99397.94;;;8.89;54.65
68656;BME280;55638;51.122;13.606;2022-12-29T08:13:04;99400.63;;;8.89;54.77
68656;BME280;55638;51.122;13.606;2022-12-29T08:14:36;99404.16;;;8.90;54.81
68656;BME280;55638;51.122;13.606;2022-12-29T08:16:08;99401.34;;;8.91;54.89
68656;BME280;55638;51.122;13.606;2022-12-29T08:17:40;99403.16;;;8.91;54.82
68656;BME280;55638;51.122;13.606;2022-12-29T08:19:12;99400.47;;;8.91;54.77
68656;BME280;55638;51.122;13.606;2022-12-29T08:20:44;99403.88;;;8.93;54.96
68656;BME280;55638;51.122;13.606;2022-12-29T08:22:23;99405.44;;;8.95;55.07
68656;BME280;55638;51.122;13.606;2022-12-29T08:23:55;99413.34;;;8.97;54.85
68656;BME280;55638;51.122;13.606;2022-12-29T08:25:27;99410.38;;;9.00;54.97
68656;BME280;55638;51.122;13.606;2022-12-29T08:26:58;99404.69;;;9.03;54.98
68656;BME280;55638;51.122;13.606;2022-12-29T08:28:42;99393.78;;;9.05;54.82
68656;BME280;55638;51.122;13.606;2022-12-29T08:30:14;99383.72;;;9.07;54.71
68656;BME280;55638;51.122;13.606;2022-12-29T08:31:46;99379.16;;;9.07;54.39
68656;BME280;55638;51.122;13.606;2022-12-29T08:33:18;99370.09;;;9.08;54.33
68656;BME280;55638;51.122;13.606;2022-12-29T08:34:50;99383.56;;;9.08;54.46
68656;BME280;55638;51.122;13.606;2022-12-29T08:36:22;99385.44;;;9.08;54.30
68656;BME280;55638;51.122;13.606;2022-12-29T08:37:54;99385.56;;;9.06;54.22
68656;BME280;55638;51.122;13.606;2022-12-29T08:39:26;99382.88;;;9.06;54.29
68656;BME280;55638;51.122;13.606;2022-12-29T08:40:58;99389.09;;;9.07;54.13
68656;BME280;55638;51.122;13.606;2022-12-29T08:42:30;99383.88;;;9.05;54.29